Colonie, NY

3:44 PM EDT on May 22, 2015 (GMT -0400)
Colonie | | Change Station
CLOSE
Current Station
Personal Weather Station
Location: Albany, NY
Elevation: 302 ft
Nearby Weather Stations
Active Advisory: Frost Advisory

Elev 302 ft 42.73 °N, 73.82 °W | Updated 38 seconds ago

Scattered Clouds
Scattered Clouds
70.0 °F
Feels Like 70.0 °F
N
4.0
Wind Variable Wind from West
Gusts 6.0 mph

Today
High -- | Low -- °F
--% Chance of Precip.
Yesterday
High -- | Low -- °F
Precip. -- in
5:26 AM 8:17 PM
Waxing Crescent, 23% visible
Pressure 29.93 in
Visibility 10.0 miles
Clouds Scattered Clouds 8500 ft
Dew Point 27 °F
Humidity 20%
Rainfall 0.00 in
Snow Depth Not available.
UV 7 out of 12
Pollen 9.50 out of 12
Air Quality Not available.
Flu Activity Widespread
METAR KALB 221851Z 27017G22KT 10SM SCT085 19/M01 A2993 RMK AO2 SLP134 T01941011

More Conditions Fewer Conditions

Pressure 29.93 in
Visibility 10.0 miles
Clouds Scattered Clouds 8500 ft
Dew Point 27 °F
Humidity 20%
Rainfall 0.00 in
Snow Depth Not available.
UV 7 out of 12
Pollen 9.50 out of 12
Air Quality Not available.
Flu Activity Widespread
METAR KALB 221851Z 27017G22KT 10SM SCT085 19/M01 A2993 RMK AO2 SLP134 T01941011

More Conditions Fewer Conditions

10-Day Weather Forecast

Almanac

Astronomy

May. 22, 2015 Rise Set
Actual Time
Civil Twilight
Nautical Twilight
Astronomical Twilight
Moon
Length of Visible Light
Length of Day
Tomorrow will be .
, % of the Moon is Illuminated

Today's Extremes

State Highs State Lows

Community

WunderPhotos

Upload Photos

1,823,279 photos uploaded!

WunderBlogs® & News

Nearby

Air Quality

  Air Quality AQ Index Pollutant
Not available.

Snow Depth

Station Depth Elevation

Earthquake Activity

City Distance Mag. Time & Date
Minimum magnitude displayed is 2.5.

Coastal Water Temperatures

Place Temperature

Stations

Nearby Weather Stations

Station Location Temp. Windchill Dew Point Humidity Wind Precip. Elev Updated Type
                   
Frost Advisory
Statement as of 3:38 AM EDT on May 22, 2015

... Frost advisory remains in effect from midnight tonight to 8 am
EDT Saturday...

* locations... greater capital district... Mid Hudson valley...
southern Taconics... and Litchfield Hills.

* Timing... late tonight into early Saturday morning.

* Temperatures... 33 to 36.

* Impacts... areas of frost may result in damage to tender
vegetation that is not protected.

Precautionary/preparedness actions...

A frost advisory means that frost is possible. Sensitive outdoor
plants may be killed if left uncovered.